createdAt,value
2016-09-29T00:00:52.428Z,17.29
2016-09-29T00:01:53.119Z,17.34
2016-09-29T00:02:53.108Z,17.34
2016-09-29T00:03:52.577Z,17.34
2016-09-29T00:04:52.634Z,17.38
2016-09-29T00:05:53.864Z,17.33
2016-09-29T00:06:53.625Z,17.33
2016-09-29T00:07:53.272Z,17.36
2016-09-29T00:08:53.408Z,17.33
2016-09-29T00:09:52.568Z,17.26
2016-09-29T00:10:52.984Z,17.26
2016-09-29T00:11:52.938Z,17.34
2016-09-29T00:12:53.386Z,17.36
2016-09-29T00:13:52.743Z,17.27
2016-09-29T00:14:53.493Z,17.26
2016-09-29T00:15:53.126Z,17.24
2016-09-29T00:16:53.323Z,17.29
2016-09-29T00:17:52.981Z,17.29
2016-09-29T00:18:52.850Z,17.24
2016-09-29T00:19:53.163Z,17.27
2016-09-29T00:20:53.256Z,17.24
2016-09-29T00:21:53.168Z,17.23
2016-09-29T00:22:53.369Z,17.27
2016-09-29T00:23:53.174Z,17.27
2016-09-29T00:24:54.396Z,17.23
2016-09-29T00:25:53.582Z,17.31
2016-09-29T00:26:53.103Z,17.29
2016-09-29T00:27:53.729Z,17.22
2016-09-29T00:28:53.908Z,17.31
2016-09-29T00:29:54.149Z,17.27
2016-09-29T00:30:53.361Z,17.23
2016-09-29T00:31:53.373Z,17.24
2016-09-29T00:32:54.103Z,17.29
2016-09-29T00:33:53.146Z,17.23
2016-09-29T00:34:53.902Z,17.12
2016-09-29T00:35:53.701Z,17.15
2016-09-29T00:36:53.616Z,17.09
2016-09-29T00:37:52.914Z,17.11
2016-09-29T00:38:53.778Z,17.12
2016-09-29T00:39:53.624Z,17.11
2016-09-29T00:40:53.633Z,17.15
2016-09-29T00:41:53.870Z,17.08
2016-09-29T00:42:53.766Z,17.06
2016-09-29T00:43:53.560Z,17.09
2016-09-29T00:44:54.555Z,17.06
2016-09-29T00:45:53.847Z,17.16
2016-09-29T00:46:54.438Z,17.29
2016-09-29T00:47:54.091Z,17.26
2016-09-29T00:48:53.956Z,17.23
2016-09-29T00:49:53.483Z,17.24
2016-09-29T00:50:55.082Z,17.26
2016-09-29T00:51:54.057Z,17.29
2016-09-29T00:52:54.179Z,17.3
2016-09-29T00:53:55.513Z,17.33
2016-09-29T00:54:53.700Z,17.33
2016-09-29T00:55:54.160Z,17.38
2016-09-29T00:56:53.725Z,17.34
2016-09-29T00:57:55.134Z,17.34
2016-09-29T00:58:53.064Z,17.36
2016-09-29T00:59:54.288Z,17.39
2016-09-29T01:00:53.890Z,17.45
2016-09-29T01:01:54.343Z,17.46
2016-09-29T01:02:54.773Z,17.41
2016-09-29T01:03:53.959Z,17.48
2016-09-29T01:04:54.825Z,17.41
2016-09-29T01:05:55.474Z,17.52
2016-09-29T01:06:53.646Z,17.45
2016-09-29T01:07:54.419Z,17.42
2016-09-29T01:08:55.541Z,17.39
2016-09-29T01:09:55.568Z,17.54
2016-09-29T01:10:55.295Z,17.46
2016-09-29T01:11:54.627Z,17.45
2016-09-29T01:12:54.667Z,17.45
2016-09-29T01:13:54.437Z,17.39
2016-09-29T01:14:54.234Z,17.31
2016-09-29T01:15:55.206Z,17.34
2016-09-29T01:16:54.160Z,17.36
2016-09-29T01:17:54.603Z,17.36
2016-09-29T01:18:53.705Z,17.34
2016-09-29T01:19:55.174Z,17.39
2016-09-29T01:20:54.749Z,17.34
2016-09-29T01:21:54.623Z,17.39
2016-09-29T01:22:54.553Z,17.26
2016-09-29T01:23:55.293Z,17.34
2016-09-29T01:24:55.020Z,17.34
2016-09-29T01:25:55.401Z,17.44
2016-09-29T01:26:54.123Z,17.39
2016-09-29T01:27:54.553Z,17.41
2016-09-29T01:28:55.730Z,17.41
2016-09-29T01:29:56.515Z,17.51
2016-09-29T01:30:54.701Z,17.51
2016-09-29T01:31:54.344Z,17.49
2016-09-29T01:32:55.696Z,17.48
2016-09-29T01:33:55.481Z,17.51
2016-09-29T01:34:55.673Z,17.52
2016-09-29T01:35:55.259Z,17.52
2016-09-29T01:36:55.906Z,17.68
2016-09-29T01:37:55.533Z,17.68
2016-09-29T01:38:55.187Z,17.64
2016-09-29T01:39:54.717Z,17.65
2016-09-29T01:40:56.555Z,17.56
2016-09-29T01:41:54.756Z,17.57
2016-09-29T01:42:55.442Z,17.7
2016-09-29T01:43:56.497Z,17.74
2016-09-29T01:44:54.620Z,17.65
2016-09-29T01:45:55.599Z,17.78
2016-09-29T01:46:55.435Z,17.76
2016-09-29T01:47:55.353Z,17.82
2016-09-29T01:48:55.900Z,17.87
2016-09-29T01:49:55.306Z,17.86
2016-09-29T01:50:55.753Z,17.87
2016-09-29T01:51:55.792Z,17.86
2016-09-29T01:52:56.121Z,17.87
2016-09-29T01:53:55.416Z,17.94
2016-09-29T01:54:55.623Z,17.92
2016-09-29T01:55:55.674Z,17.86
2016-09-29T01:56:55.986Z,17.89
2016-09-29T01:57:56.754Z,17.85
2016-09-29T01:58:55.480Z,17.85
2016-09-29T01:59:56.331Z,17.82
2016-09-29T02:00:55.981Z,17.74
2016-09-29T02:01:56.350Z,17.78
2016-09-29T02:02:55.635Z,17.72
2016-09-29T02:03:56.397Z,17.68
2016-09-29T02:04:55.724Z,17.65
2016-09-29T02:05:55.766Z,17.72
2016-09-29T02:06:55.600Z,17.64
2016-09-29T02:07:56.064Z,17.78
2016-09-29T02:08:55.977Z,17.72
2016-09-29T02:09:56.347Z,17.76
2016-09-29T02:10:55.776Z,17.68
2016-09-29T02:11:55.640Z,17.7
2016-09-29T02:12:56.068Z,17.7
2016-09-29T02:13:55.613Z,17.85
2016-09-29T02:14:56.817Z,17.71
2016-09-29T02:15:56.663Z,17.82
2016-09-29T02:16:56.679Z,17.74
2016-09-29T02:17:56.608Z,17.7
2016-09-29T02:18:56.178Z,17.65
2016-09-29T02:19:56.510Z,17.65
2016-09-29T02:20:56.370Z,17.71
2016-09-29T02:21:56.038Z,17.64
2016-09-29T02:22:56.621Z,17.6
2016-09-29T02:23:56.793Z,17.63
2016-09-29T02:24:56.074Z,17.52
2016-09-29T02:25:55.939Z,17.49
2016-09-29T02:26:55.484Z,17.54
2016-09-29T02:27:56.857Z,17.63
2016-09-29T02:28:56.309Z,17.54
2016-09-29T02:29:55.520Z,17.57
2016-09-29T02:30:56.506Z,17.64
2016-09-29T02:31:56.245Z,17.6
2016-09-29T02:32:56.642Z,17.51
2016-09-29T02:33:56.187Z,17.51
2016-09-29T02:34:55.699Z,17.51
2016-09-29T02:35:56.441Z,17.52
2016-09-29T02:36:55.755Z,17.45
2016-09-29T02:37:55.989Z,17.41
2016-09-29T02:38:55.501Z,17.54
2016-09-29T02:39:55.673Z,17.46
2016-09-29T02:40:56.068Z,17.45
2016-09-29T02:41:55.600Z,17.44
2016-09-29T02:42:56.322Z,17.39
2016-09-29T02:43:55.927Z,17.41
2016-09-29T02:44:56.691Z,17.41
2016-09-29T02:45:56.261Z,17.39
2016-09-29T02:46:56.365Z,17.33
2016-09-29T02:47:56.470Z,17.38
2016-09-29T02:48:56.748Z,17.36
2016-09-29T02:49:57.138Z,17.41
2016-09-29T02:50:56.180Z,17.39
2016-09-29T02:51:56.394Z,17.36
2016-09-29T02:52:56.482Z,17.31
2016-09-29T02:53:58.139Z,17.27
2016-09-29T02:54:57.080Z,17.33
2016-09-29T02:55:57.752Z,17.39
2016-09-29T02:56:56.411Z,17.36
2016-09-29T02:57:56.371Z,17.36
2016-09-29T02:58:57.269Z,17.3
2016-09-29T02:59:56.832Z,17.39
2016-09-29T03:00:56.592Z,17.34
2016-09-29T03:01:57.195Z,17.41
2016-09-29T03:02:56.932Z,17.39
2016-09-29T03:03:56.668Z,17.38
2016-09-29T03:04:56.296Z,17.34
2016-09-29T03:05:56.763Z,17.41
2016-09-29T03:06:56.491Z,17.39
2016-09-29T03:07:56.610Z,17.41
2016-09-29T03:08:56.523Z,17.42
2016-09-29T03:09:57.007Z,17.41
2016-09-29T03:10:57.244Z,17.38
2016-09-29T03:11:57.438Z,17.48
2016-09-29T03:12:57.868Z,17.51
2016-09-29T03:13:57.416Z,17.51
2016-09-29T03:14:57.037Z,17.52
2016-09-29T03:15:56.698Z,17.6
2016-09-29T03:16:57.600Z,17.68
2016-09-29T03:17:57.440Z,17.63
2016-09-29T03:18:56.198Z,17.56
2016-09-29T03:19:57.026Z,17.6
2016-09-29T03:20:57.210Z,17.59
2016-09-29T03:21:56.824Z,17.49
2016-09-29T03:22:57.711Z,17.64
2016-09-29T03:23:56.912Z,17.67
2016-09-29T03:24:57.134Z,17.49
2016-09-29T03:25:56.958Z,17.46
2016-09-29T03:26:58.370Z,17.31
2016-09-29T03:27:57.720Z,17.39
2016-09-29T03:28:59.018Z,17.36
2016-09-29T03:29:57.977Z,17.24
2016-09-29T03:30:58.091Z,17.26
2016-09-29T03:31:57.593Z,17.24
2016-09-29T03:32:56.630Z,17.26
2016-09-29T03:33:58.233Z,17.12
2016-09-29T03:34:58.001Z,17.14
2016-09-29T03:35:58.508Z,17.09
2016-09-29T03:36:57.426Z,17.09
2016-09-29T03:37:59.215Z,17.09
2016-09-29T03:38:58.420Z,16.99
2016-09-29T03:39:58.389Z,16.96
2016-09-29T03:40:58.276Z,16.96
2016-09-29T03:41:57.941Z,16.97
2016-09-29T03:42:57.636Z,16.91
2016-09-29T03:43:57.180Z,16.84
2016-09-29T03:44:57.999Z,16.79
2016-09-29T03:45:57.963Z,16.76
2016-09-29T03:46:57.136Z,16.75
2016-09-29T03:47:57.862Z,16.68
2016-09-29T03:48:58.270Z,16.65
2016-09-29T03:49:59.383Z,16.66
2016-09-29T03:50:58.194Z,16.61
2016-09-29T03:51:57.363Z,16.49
2016-09-29T03:52:57.245Z,16.6
2016-09-29T03:53:57.789Z,16.6
2016-09-29T03:54:57.847Z,16.54
2016-09-29T03:55:58.400Z,16.43
2016-09-29T03:56:58.220Z,16.49
2016-09-29T03:57:59.592Z,16.35
2016-09-29T03:58:57.762Z,16.38
2016-09-29T03:59:58.368Z,16.42
2016-09-29T04:00:58.796Z,16.38
2016-09-29T04:01:58.422Z,16.39
2016-09-29T04:02:58.843Z,16.49
2016-09-29T04:03:57.200Z,16.5
2016-09-29T04:04:58.409Z,16.5
2016-09-29T04:05:57.817Z,16.49
2016-09-29T04:06:59.637Z,16.41
2016-09-29T04:07:58.037Z,16.39
2016-09-29T04:08:58.001Z,16.41
2016-09-29T04:09:58.518Z,16.47
2016-09-29T04:10:57.809Z,16.51
2016-09-29T04:11:58.113Z,16.49
2016-09-29T04:12:57.795Z,16.51
2016-09-29T04:13:57.607Z,16.57
2016-09-29T04:14:58.362Z,16.57
2016-09-29T04:15:58.109Z,16.64
2016-09-29T04:16:58.396Z,16.58
2016-09-29T04:17:58.786Z,16.54
2016-09-29T04:18:58.105Z,16.5
2016-09-29T04:19:59.244Z,16.42
2016-09-29T04:20:58.317Z,16.43
2016-09-29T04:21:58.417Z,16.46
2016-09-29T04:22:58.684Z,16.41
2016-09-29T04:23:58.254Z,16.41
2016-09-29T04:25:00.468Z,16.35
2016-09-29T04:25:58.398Z,16.38
2016-09-29T04:26:58.643Z,16.28
2016-09-29T04:27:59.823Z,16.31
2016-09-29T04:28:58.926Z,16.29
2016-09-29T04:29:58.200Z,16.29
2016-09-29T04:30:58.862Z,16.28
2016-09-29T04:31:58.305Z,16.23
2016-09-29T04:32:58.547Z,16.16
2016-09-29T04:33:58.630Z,16.2
2016-09-29T04:34:58.428Z,16.09
2016-09-29T04:36:00.013Z,16.17
2016-09-29T04:36:58.679Z,16.12
2016-09-29T04:37:59.163Z,16.01
2016-09-29T04:38:58.570Z,16.05
2016-09-29T04:39:59.577Z,16
2016-09-29T04:40:57.521Z,15.92
2016-09-29T04:41:57.736Z,15.94
2016-09-29T04:42:59.503Z,15.94
2016-09-29T04:43:59.430Z,15.98
2016-09-29T04:44:59.005Z,15.9
2016-09-29T04:45:59.594Z,15.92
2016-09-29T04:46:58.823Z,15.88
2016-09-29T04:47:59.026Z,15.79
2016-09-29T04:48:59.228Z,15.79
2016-09-29T04:49:58.353Z,15.9
2016-09-29T04:51:00.528Z,15.84
2016-09-29T04:51:58.685Z,15.95
2016-09-29T04:52:59.186Z,15.94
2016-09-29T04:53:59.320Z,15.91
2016-09-29T04:54:58.682Z,15.91
2016-09-29T04:55:58.579Z,15.91
2016-09-29T04:56:58.765Z,15.82
2016-09-29T04:57:59.313Z,15.77
2016-09-29T04:58:58.741Z,15.79
2016-09-29T04:59:58.658Z,15.76
2016-09-29T05:00:59.040Z,15.72
2016-09-29T05:01:59.092Z,15.73
2016-09-29T05:02:59.234Z,15.75
2016-09-29T05:03:59.840Z,15.73
2016-09-29T05:05:00.486Z,15.61
2016-09-29T05:05:59.361Z,15.61
2016-09-29T05:06:59.519Z,15.75
2016-09-29T05:08:00.277Z,15.75
2016-09-29T05:08:59.258Z,15.72
2016-09-29T05:09:59.012Z,15.64
2016-09-29T05:10:59.380Z,15.67
2016-09-29T05:11:59.399Z,15.64
2016-09-29T05:12:58.649Z,15.59
2016-09-29T05:13:59.195Z,15.59
2016-09-29T05:14:58.983Z,15.62
2016-09-29T05:16:00.502Z,15.61
2016-09-29T05:17:01.108Z,15.61
2016-09-29T05:17:59.656Z,15.7
2016-09-29T05:18:59.288Z,15.72
2016-09-29T05:19:59.400Z,15.73
2016-09-29T05:21:01.120Z,15.7
2016-09-29T05:21:59.996Z,15.65
2016-09-29T05:22:59.629Z,15.67
2016-09-29T05:24:00.566Z,15.65
2016-09-29T05:25:00.029Z,15.68
2016-09-29T05:26:00.969Z,15.67
2016-09-29T05:26:59.203Z,15.62
2016-09-29T05:28:01.409Z,15.57
2016-09-29T05:28:59.943Z,15.58
2016-09-29T05:29:59.924Z,15.61
2016-09-29T05:30:59.801Z,15.58
2016-09-29T05:31:59.985Z,15.67
2016-09-29T05:33:00.644Z,15.72
2016-09-29T05:33:59.361Z,15.64
2016-09-29T05:34:59.782Z,15.59
2016-09-29T05:36:00.938Z,15.64
2016-09-29T05:36:59.528Z,15.61
2016-09-29T05:37:59.754Z,15.57
2016-09-29T05:39:01.641Z,15.55
2016-09-29T05:40:00.441Z,15.57
2016-09-29T05:40:59.318Z,15.57
2016-09-29T05:42:00.221Z,15.55
2016-09-29T05:43:00.017Z,15.62
2016-09-29T05:43:59.660Z,15.64
2016-09-29T05:44:59.941Z,15.57
2016-09-29T05:46:00.306Z,15.73
2016-09-29T05:47:01.177Z,15.7
2016-09-29T05:48:00.827Z,15.72
2016-09-29T05:49:01.088Z,15.72
2016-09-29T05:50:01.374Z,15.73
2016-09-29T05:51:01.132Z,15.73
2016-09-29T05:52:00.372Z,15.76
2016-09-29T05:53:00.844Z,15.76
2016-09-29T05:53:59.988Z,15.76
2016-09-29T05:55:01.040Z,15.8
2016-09-29T05:56:00.335Z,15.77
2016-09-29T05:57:00.744Z,15.77
2016-09-29T05:58:00.664Z,15.82
2016-09-29T05:58:59.976Z,15.83
2016-09-29T06:00:01.700Z,15.88
2016-09-29T06:01:01.020Z,15.88
2016-09-29T06:02:00.299Z,15.8
2016-09-29T06:03:00.750Z,15.94
2016-09-29T06:04:00.726Z,15.95
2016-09-29T06:05:00.854Z,16
2016-09-29T06:06:00.992Z,15.94
2016-09-29T06:07:00.712Z,15.91
2016-09-29T06:08:00.778Z,15.94
2016-09-29T06:09:00.723Z,15.97
2016-09-29T06:10:01.257Z,15.97
2016-09-29T06:11:01.321Z,15.94
2016-09-29T06:12:00.864Z,15.98
2016-09-29T06:13:00.637Z,16.01
2016-09-29T06:14:01.481Z,16.05
2016-09-29T06:15:01.932Z,16.02
2016-09-29T06:16:00.548Z,16.02
2016-09-29T06:17:01.093Z,15.98
2016-09-29T06:18:01.120Z,16.04
2016-09-29T06:19:01.274Z,16.01
2016-09-29T06:20:01.229Z,15.98
2016-09-29T06:21:02.084Z,16.02
2016-09-29T06:22:01.194Z,16
2016-09-29T06:23:00.970Z,16.04
2016-09-29T06:24:00.911Z,16
2016-09-29T06:25:01.460Z,16.02
2016-09-29T06:26:01.285Z,16.02
2016-09-29T06:27:01.176Z,16.02
2016-09-29T06:28:01.474Z,16
2016-09-29T06:29:01.024Z,15.97
2016-09-29T06:30:01.594Z,16.01
2016-09-29T06:31:01.816Z,16
2016-09-29T06:32:01.387Z,16.04
2016-09-29T06:33:00.751Z,16.04
2016-09-29T06:34:01.630Z,16.04
2016-09-29T06:35:00.827Z,15.97
2016-09-29T06:36:01.265Z,15.98
2016-09-29T06:37:01.296Z,15.95
2016-09-29T06:38:01.025Z,15.9
2016-09-29T06:39:00.678Z,15.94
2016-09-29T06:40:01.567Z,15.83
2016-09-29T06:41:02.701Z,15.91
2016-09-29T06:42:00.867Z,15.9
2016-09-29T06:43:01.947Z,15.82
2016-09-29T06:44:01.497Z,15.84
2016-09-29T06:45:01.719Z,15.84
2016-09-29T06:46:01.969Z,15.83
2016-09-29T06:47:00.854Z,15.88
2016-09-29T06:48:01.448Z,15.86
2016-09-29T06:49:01.357Z,15.8
2016-09-29T06:50:02.586Z,15.83
2016-09-29T06:51:01.551Z,15.86
2016-09-29T06:52:01.260Z,15.88
2016-09-29T06:53:01.297Z,15.91
2016-09-29T06:54:02.151Z,15.88
2016-09-29T06:55:01.484Z,15.9
2016-09-29T06:56:01.436Z,15.95
2016-09-29T06:57:01.640Z,15.94
2016-09-29T06:58:01.214Z,15.97
2016-09-29T06:59:02.035Z,16.16
2016-09-29T07:00:01.805Z,16.05
2016-09-29T07:01:01.625Z,16.29
2016-09-29T07:02:01.746Z,16.31
2016-09-29T07:03:02.174Z,16.46
2016-09-29T07:04:01.783Z,16.42
2016-09-29T07:05:01.985Z,16.51
2016-09-29T07:06:03.211Z,16.64
2016-09-29T07:07:02.167Z,16.49
2016-09-29T07:08:01.562Z,16.43
2016-09-29T07:09:02.586Z,16.46
2016-09-29T07:10:01.855Z,16.46
2016-09-29T07:11:01.791Z,16.56
2016-09-29T07:12:02.025Z,16.65
2016-09-29T07:13:01.669Z,16.79
2016-09-29T07:14:02.897Z,16.93
2016-09-29T07:15:01.665Z,16.96
2016-09-29T07:16:02.092Z,17.09
2016-09-29T07:17:02.941Z,17.27
2016-09-29T07:18:02.539Z,17.38
2016-09-29T07:19:02.274Z,17.36
2016-09-29T07:20:01.589Z,17.38
2016-09-29T07:21:03.162Z,17.54
2016-09-29T07:22:02.205Z,17.51
2016-09-29T07:23:01.976Z,17.51
2016-09-29T07:24:02.073Z,17.51
2016-09-29T07:25:02.006Z,17.48
2016-09-29T07:26:02.983Z,17.44
2016-09-29T07:27:02.940Z,17.59
2016-09-29T07:28:02.017Z,17.64
2016-09-29T07:29:02.615Z,17.52
2016-09-29T07:30:02.545Z,17.64
2016-09-29T07:31:02.441Z,17.65
2016-09-29T07:32:02.857Z,17.57
2016-09-29T07:33:02.933Z,17.56
2016-09-29T07:34:03.361Z,17.59
2016-09-29T07:35:02.622Z,17.78
2016-09-29T07:36:02.654Z,17.78
2016-09-29T07:37:02.126Z,17.64
2016-09-29T07:38:03.021Z,17.79
2016-09-29T07:39:02.386Z,17.7
2016-09-29T07:40:02.373Z,17.68
2016-09-29T07:41:02.456Z,17.63
2016-09-29T07:42:02.452Z,17.6
2016-09-29T07:43:02.189Z,17.64
2016-09-29T07:44:01.911Z,17.51
2016-09-29T07:45:03.130Z,17.54
2016-09-29T07:46:02.853Z,17.7
2016-09-29T07:47:02.723Z,17.59
2016-09-29T07:48:03.250Z,17.64
2016-09-29T07:49:02.524Z,17.57
2016-09-29T07:50:02.304Z,17.64
2016-09-29T07:51:02.256Z,17.65
2016-09-29T07:52:02.702Z,17.7
2016-09-29T07:53:03.659Z,17.68
2016-09-29T07:54:04.608Z,17.46
2016-09-29T07:55:03.181Z,17.49
2016-09-29T07:56:03.043Z,17.49
2016-09-29T07:57:03.294Z,17.51
2016-09-29T07:58:03.050Z,17.59
2016-09-29T07:59:03.099Z,17.46
2016-09-29T08:00:03.421Z,17.38
2016-09-29T08:01:03.976Z,17.34
2016-09-29T08:02:03.471Z,17.34
2016-09-29T08:03:03.590Z,17.33
2016-09-29T08:04:03.951Z,17.27
2016-09-29T08:05:03.939Z,17.34
2016-09-29T08:06:03.724Z,17.42
2016-09-29T08:07:02.957Z,17.57
2016-09-29T08:08:02.964Z,17.76
2016-09-29T08:09:03.529Z,17.67
2016-09-29T08:10:03.591Z,17.8
2016-09-29T08:11:02.930Z,17.72
2016-09-29T08:12:03.718Z,17.72
2016-09-29T08:13:03.318Z,17.63
2016-09-29T08:14:03.206Z,17.71
2016-09-29T08:15:03.058Z,17.57
2016-09-29T08:16:03.483Z,17.7
2016-09-29T08:17:02.999Z,17.72
2016-09-29T08:18:02.916Z,17.7
2016-09-29T08:19:03.512Z,17.67
2016-09-29T08:20:04.333Z,17.76
2016-09-29T08:21:03.341Z,17.76
2016-09-29T08:22:03.955Z,17.8
2016-09-29T08:23:04.016Z,17.89
2016-09-29T08:24:03.501Z,17.8
2016-09-29T08:25:03.739Z,17.87
2016-09-29T08:26:02.895Z,17.79
2016-09-29T08:27:03.728Z,17.71
2016-09-29T08:28:03.458Z,17.71
2016-09-29T08:29:04.140Z,17.71
2016-09-29T08:30:03.683Z,17.82
2016-09-29T08:31:04.126Z,17.82
2016-09-29T08:32:03.625Z,17.85
2016-09-29T08:33:04.200Z,17.83
2016-09-29T08:34:03.341Z,17.74
2016-09-29T08:35:03.690Z,17.89
2016-09-29T08:36:04.609Z,17.83
2016-09-29T08:37:03.841Z,17.98
2016-09-29T08:38:03.948Z,18.03
2016-09-29T08:39:04.889Z,18.15
2016-09-29T08:40:04.309Z,18.28
2016-09-29T08:41:04.281Z,18.71
2016-09-29T08:42:03.747Z,19.07
2016-09-29T08:43:04.996Z,19.18
2016-09-29T08:44:04.597Z,19.11
2016-09-29T08:45:04.573Z,19.15
2016-09-29T08:46:05.352Z,19.18
2016-09-29T08:47:04.194Z,18.98
2016-09-29T08:48:04.060Z,18.84
2016-09-29T08:49:04.453Z,18.93
2016-09-29T08:50:04.748Z,18.84
2016-09-29T08:51:04.023Z,19.11
2016-09-29T08:52:05.257Z,19.31
2016-09-29T08:53:05.215Z,19.4
2016-09-29T08:54:03.713Z,19.58
2016-09-29T08:55:04.179Z,19.69
2016-09-29T08:56:05.030Z,19.52
2016-09-29T08:57:03.678Z,19.77
2016-09-29T08:58:04.661Z,19.86
2016-09-29T08:59:05.028Z,19.85
2016-09-29T09:00:04.961Z,19.7
2016-09-29T09:01:04.731Z,19.55
2016-09-29T09:02:04.362Z,19.56
2016-09-29T09:03:04.650Z,19.51
2016-09-29T09:04:04.933Z,19.59
2016-09-29T09:05:04.931Z,19.73
2016-09-29T09:06:04.792Z,19.64
2016-09-29T09:07:05.401Z,19.66
2016-09-29T09:08:04.564Z,19.71
2016-09-29T09:09:04.531Z,19.76
2016-09-29T09:10:04.296Z,19.81
2016-09-29T09:11:04.077Z,20.03
2016-09-29T09:12:04.534Z,20.04
2016-09-29T09:13:04.790Z,20.21
2016-09-29T09:14:05.114Z,20.41
2016-09-29T09:15:04.431Z,20.55
2016-09-29T09:16:04.598Z,20.7
2016-09-29T09:17:04.570Z,20.84
2016-09-29T09:18:04.793Z,20.95
2016-09-29T09:19:04.747Z,21.18
2016-09-29T09:20:04.371Z,21.05
2016-09-29T09:21:04.745Z,20.99
2016-09-29T09:22:04.689Z,20.88
2016-09-29T09:23:04.875Z,21.21
2016-09-29T09:24:04.761Z,21.61
2016-09-29T09:25:06.120Z,21.89
2016-09-29T09:26:05.347Z,22.18
2016-09-29T09:27:04.950Z,22.48
2016-09-29T09:28:05.693Z,22.5
2016-09-29T09:29:05.412Z,22.76
2016-09-29T09:30:06.127Z,23.32
2016-09-29T09:31:04.859Z,23.86
2016-09-29T09:32:05.789Z,23.93
2016-09-29T09:33:05.637Z,23.93
2016-09-29T09:34:06.217Z,24.02
2016-09-29T09:35:05.579Z,23.69
2016-09-29T09:36:05.190Z,23.51
2016-09-29T09:37:06.506Z,23.58
2016-09-29T09:38:05.690Z,23.44
2016-09-29T09:39:05.060Z,23.46
2016-09-29T09:40:05.517Z,23
2016-09-29T09:41:06.346Z,22.88
2016-09-29T09:42:05.972Z,22.78
2016-09-29T09:43:05.863Z,22.85
2016-09-29T09:44:05.166Z,23.32
2016-09-29T09:45:05.301Z,23.44
2016-09-29T09:46:06.343Z,23.1
2016-09-29T09:47:05.842Z,23.44
2016-09-29T09:48:06.016Z,23.73
2016-09-29T09:49:05.632Z,23.65
2016-09-29T09:50:06.684Z,23.83
2016-09-29T09:51:06.485Z,24.16
2016-09-29T09:52:06.566Z,23.83
2016-09-29T09:53:06.170Z,23.5
2016-09-29T09:54:06.043Z,23.62
2016-09-29T09:55:06.326Z,23.48
2016-09-29T09:56:06.525Z,23.55
2016-09-29T09:57:07.251Z,23.63
2016-09-29T09:58:06.057Z,24.13
2016-09-29T09:59:05.708Z,24.16
2016-09-29T10:00:06.307Z,24.47
2016-09-29T10:01:06.192Z,24.17
2016-09-29T10:02:06.530Z,23.86
2016-09-29T10:03:06.653Z,23.74
2016-09-29T10:04:06.183Z,24.01
2016-09-29T10:05:05.869Z,24.13
2016-09-29T10:06:05.878Z,24.14
2016-09-29T10:07:06.394Z,24.2
2016-09-29T10:08:06.494Z,24.08
2016-09-29T10:09:07.066Z,24.08
2016-09-29T10:10:06.848Z,24.39
2016-09-29T10:11:07.390Z,24.73
2016-09-29T10:12:06.394Z,24.78
2016-09-29T10:13:06.373Z,24.55
2016-09-29T10:14:06.401Z,24.61
2016-09-29T10:15:07.144Z,24.58
2016-09-29T10:16:06.660Z,24.33
2016-09-29T10:17:07.471Z,24.4
2016-09-29T10:18:06.380Z,24.26
2016-09-29T10:19:05.770Z,23.83
2016-09-29T10:20:06.705Z,23.5
2016-09-29T10:21:06.383Z,23.76
2016-09-29T10:22:06.110Z,24.05
2016-09-29T10:23:08.131Z,24.23
2016-09-29T10:24:06.821Z,24.45
2016-09-29T10:25:07.116Z,24.24
2016-09-29T10:26:06.529Z,24.3
2016-09-29T10:27:06.564Z,24.38
2016-09-29T10:28:06.785Z,24.17
2016-09-29T10:29:06.775Z,24.21
2016-09-29T10:30:07.654Z,24.3
2016-09-29T10:31:07.268Z,24.53
2016-09-29T10:32:07.185Z,24.48
2016-09-29T10:33:07.137Z,24.78
2016-09-29T10:34:06.405Z,24.77
2016-09-29T10:35:07.047Z,24.42
2016-09-29T10:36:07.090Z,24.39
2016-09-29T10:37:08.577Z,24.45
2016-09-29T10:38:07.069Z,24.81
2016-09-29T10:39:07.106Z,24.92
2016-09-29T10:40:08.278Z,24.92
2016-09-29T10:41:07.054Z,24.88
2016-09-29T10:42:07.086Z,24.74
2016-09-29T10:43:07.546Z,24.91
2016-09-29T10:44:07.112Z,24.92
2016-09-29T10:45:06.866Z,24.99
2016-09-29T10:46:06.997Z,24.63
2016-09-29T10:47:07.030Z,24.45
2016-09-29T10:48:07.794Z,24.66
2016-09-29T10:49:08.286Z,24.7
2016-09-29T10:50:07.695Z,24.88
2016-09-29T10:51:07.570Z,24.99
2016-09-29T10:52:08.267Z,24.91
2016-09-29T10:53:07.689Z,24.63
2016-09-29T10:54:08.132Z,24.73
2016-09-29T10:55:07.639Z,24.92
2016-09-29T10:56:07.288Z,25.04
2016-09-29T10:57:07.674Z,25.31
2016-09-29T10:58:07.345Z,25.7
2016-09-29T10:59:07.993Z,25.73
2016-09-29T11:00:08.478Z,25.51
2016-09-29T11:01:09.445Z,25.25
2016-09-29T11:02:08.107Z,25.25
2016-09-29T11:03:08.150Z,25.58
2016-09-29T11:04:08.185Z,25.88
2016-09-29T11:05:08.283Z,25.6
2016-09-29T11:06:08.717Z,25.04
2016-09-29T11:07:07.799Z,24.57
2016-09-29T11:08:08.279Z,24.43
2016-09-29T11:09:08.532Z,24.42
2016-09-29T11:10:08.753Z,24.36
2016-09-29T11:11:08.381Z,24.51
2016-09-29T11:12:08.993Z,24.51
2016-09-29T11:13:08.272Z,24.53
2016-09-29T11:14:08.436Z,24.74
2016-09-29T11:15:09.384Z,24.91
2016-09-29T11:16:09.157Z,25.29
2016-09-29T11:17:08.448Z,25.38
2016-09-29T11:18:09.468Z,25.17
2016-09-29T11:19:08.092Z,24.88
2016-09-29T11:20:08.365Z,25.23
2016-09-29T11:21:08.673Z,25.13
2016-09-29T11:22:08.391Z,25.1
2016-09-29T11:23:08.833Z,25.21
2016-09-29T11:24:08.625Z,25.93
2016-09-29T11:25:08.416Z,26.09
2016-09-29T11:26:08.064Z,26.25
2016-09-29T11:27:09.339Z,26.23
2016-09-29T11:28:08.418Z,26.59
2016-09-29T11:29:09.329Z,26.7
2016-09-29T11:30:08.966Z,26.7
2016-09-29T11:31:09.072Z,26.51
2016-09-29T11:32:09.115Z,26.06
2016-09-29T11:33:10.202Z,25.85
2016-09-29T11:34:08.988Z,26
2016-09-29T11:35:09.926Z,26.19
2016-09-29T11:36:09.334Z,26.1
2016-09-29T11:37:09.135Z,26.29
2016-09-29T11:38:09.526Z,25.75
2016-09-29T11:39:09.968Z,26.38
2016-09-29T11:40:09.506Z,26.25
2016-09-29T11:41:09.247Z,26.29
2016-09-29T11:42:08.810Z,26.48
2016-09-29T11:43:09.233Z,26.78
2016-09-29T11:44:09.631Z,26.56
2016-09-29T11:45:09.060Z,27
2016-09-29T11:46:09.866Z,26.58
2016-09-29T11:47:09.113Z,26.29
2016-09-29T11:48:08.698Z,26.63
2016-09-29T11:49:09.616Z,26.58
2016-09-29T11:50:09.703Z,26.63
2016-09-29T11:51:08.673Z,26.81
2016-09-29T11:52:09.786Z,27.14
2016-09-29T11:53:08.819Z,27.32
2016-09-29T11:54:10.785Z,27.51
2016-09-29T11:55:08.828Z,27.8
2016-09-29T11:56:08.755Z,27.32
2016-09-29T11:57:09.952Z,26.73
2016-09-29T11:58:10.051Z,26.58
2016-09-29T11:59:09.086Z,26.95
2016-09-29T12:00:09.665Z,27.17
2016-09-29T12:01:09.414Z,27.07
2016-09-29T12:02:11.765Z,27.18
2016-09-29T12:03:09.852Z,27.25
2016-09-29T12:04:09.750Z,26.84
2016-09-29T12:05:09.616Z,26.48
2016-09-29T12:06:09.330Z,26.71
2016-09-29T12:07:10.387Z,26.71
2016-09-29T12:08:10.494Z,26.7
2016-09-29T12:09:09.649Z,26.6
2016-09-29T12:10:09.528Z,26.56
2016-09-29T12:11:10.698Z,26.52
2016-09-29T12:12:10.405Z,26.58
2016-09-29T12:13:11.595Z,26.71
2016-09-29T12:14:09.740Z,26.65
2016-09-29T12:15:09.697Z,26.96
2016-09-29T12:16:10.834Z,27.29
2016-09-29T12:17:10.881Z,27.27
2016-09-29T12:18:10.212Z,27.36
2016-09-29T12:19:10.193Z,27.74
2016-09-29T12:20:10.819Z,28.14
2016-09-29T12:21:10.259Z,27.85
2016-09-29T12:22:10.328Z,27.49
2016-09-29T12:23:10.240Z,27.26
2016-09-29T12:24:10.760Z,27.39
2016-09-29T12:25:10.311Z,27.58
2016-09-29T12:26:10.895Z,26.84
2016-09-29T12:27:10.320Z,26.62
2016-09-29T12:28:10.385Z,26.19
2016-09-29T12:29:10.300Z,26.55
2016-09-29T12:30:12.396Z,26.84
2016-09-29T12:31:11.524Z,26.95
2016-09-29T12:32:10.301Z,26.88
2016-09-29T12:33:10.267Z,26.93
2016-09-29T12:34:12.435Z,26.93
2016-09-29T12:35:11.441Z,27.07
2016-09-29T12:36:10.449Z,26.74
2016-09-29T12:37:10.398Z,26.37
2016-09-29T12:38:10.763Z,26.68
2016-09-29T12:39:11.497Z,26.75
2016-09-29T12:40:10.369Z,26.75
2016-09-29T12:41:11.585Z,26.48
2016-09-29T12:42:11.079Z,26.95
2016-09-29T12:43:11.224Z,26.83
2016-09-29T12:44:11.893Z,26.59
2016-09-29T12:45:10.482Z,26.37
2016-09-29T12:46:11.685Z,25.96
2016-09-29T12:47:11.577Z,25.68
2016-09-29T12:48:11.701Z,25.33
2016-09-29T12:49:11.126Z,25.38
2016-09-29T12:50:12.200Z,25.21
2016-09-29T12:51:11.192Z,25.14
2016-09-29T12:52:11.303Z,25.08
2016-09-29T12:53:11.443Z,25.1
2016-09-29T12:54:11.635Z,25.18
2016-09-29T12:55:11.343Z,25.23
2016-09-29T12:56:11.357Z,25.13